sensor_id;sensor_type;location;lat;lon;timestamp;P1;durP1;ratioP1;P2;durP2;ratioP2
67181;SDS011;54114;53.524;49.396;2023-05-10T00:01:16;4.15;;;0.90;;
67181;SDS011;54114;53.524;49.396;2023-05-10T00:03:42;6.50;;;1.25;;
67181;SDS011;54114;53.524;49.396;2023-05-10T00:06:09;3.00;;;0.70;;
67181;SDS011;54114;53.524;49.396;2023-05-10T00:08:35;3.45;;;0.80;;
67181;SDS011;54114;53.524;49.396;2023-05-10T00:11:02;2.92;;;1.20;;
67181;SDS011;54114;53.524;49.396;2023-05-10T00:13:29;2.85;;;0.90;;
67181;SDS011;54114;53.524;49.396;2023-05-10T00:15:55;2.08;;;0.80;;
67181;SDS011;54114;53.524;49.396;2023-05-10T00:18:22;2.08;;;1.02;;
67181;SDS011;54114;53.524;49.396;2023-05-10T00:20:49;3.45;;;1.10;;
67181;SDS011;54114;53.524;49.396;2023-05-10T00:23:15;2.45;;;0.75;;
67181;SDS011;54114;53.524;49.396;2023-05-10T00:25:42;3.35;;;1.00;;
67181;SDS011;54114;53.524;49.396;2023-05-10T00:28:09;2.85;;;0.90;;
67181;SDS011;54114;53.524;49.396;2023-05-10T00:30:35;3.17;;;0.90;;
67181;SDS011;54114;53.524;49.396;2023-05-10T00:33:02;1.17;;;0.70;;
67181;SDS011;54114;53.524;49.396;2023-05-10T00:35:29;3.22;;;0.93;;
67181;SDS011;54114;53.524;49.396;2023-05-10T00:37:56;1.62;;;0.73;;
67181;SDS011;54114;53.524;49.396;2023-05-10T00:40:22;1.48;;;0.60;;
67181;SDS011;54114;53.524;49.396;2023-05-10T00:42:49;2.55;;;0.88;;
67181;SDS011;54114;53.524;49.396;2023-05-10T00:45:16;3.58;;;0.60;;
67181;SDS011;54114;53.524;49.396;2023-05-10T00:47:42;1.85;;;0.70;;
67181;SDS011;54114;53.524;49.396;2023-05-10T00:50:09;1.12;;;0.60;;
67181;SDS011;54114;53.524;49.396;2023-05-10T00:52:36;2.70;;;0.80;;
67181;SDS011;54114;53.524;49.396;2023-05-10T00:55:03;1.08;;;0.62;;
67181;SDS011;54114;53.524;49.396;2023-05-10T00:57:32;2.90;;;0.77;;
67181;SDS011;54114;53.524;49.396;2023-05-10T00:59:59;1.75;;;0.75;;
67181;SDS011;54114;53.524;49.396;2023-05-10T01:02:25;3.25;;;0.70;;
67181;SDS011;54114;53.524;49.396;2023-05-10T01:04:52;2.60;;;0.77;;
67181;SDS011;54114;53.524;49.396;2023-05-10T01:07:19;2.55;;;0.70;;
67181;SDS011;54114;53.524;49.396;2023-05-10T01:09:46;3.62;;;0.88;;
67181;SDS011;54114;53.524;49.396;2023-05-10T01:12:14;9.35;;;1.17;;
67181;SDS011;54114;53.524;49.396;2023-05-10T01:14:41;4.15;;;0.90;;
67181;SDS011;54114;53.524;49.396;2023-05-10T01:17:08;3.00;;;1.02;;
67181;SDS011;54114;53.524;49.396;2023-05-10T01:19:36;5.53;;;0.90;;
67181;SDS011;54114;53.524;49.396;2023-05-10T01:33:00;1.25;;;0.55;;
67181;SDS011;54114;53.524;49.396;2023-05-10T01:35:55;5.68;;;1.05;;
67181;SDS011;54114;53.524;49.396;2023-05-10T01:43:57;8.90;;;0.88;;
67181;SDS011;54114;53.524;49.396;2023-05-10T01:46:43;3.33;;;1.00;;
67181;SDS011;54114;53.524;49.396;2023-05-10T01:49:32;4.07;;;0.90;;
67181;SDS011;54114;53.524;49.396;2023-05-10T01:52:08;1.10;;;0.75;;
67181;SDS011;54114;53.524;49.396;2023-05-10T01:54:38;3.72;;;0.95;;
67181;SDS011;54114;53.524;49.396;2023-05-10T01:59:42;2.50;;;0.88;;
67181;SDS011;54114;53.524;49.396;2023-05-10T02:02:11;2.33;;;1.00;;
67181;SDS011;54114;53.524;49.396;2023-05-10T02:04:39;4.47;;;1.60;;
67181;SDS011;54114;53.524;49.396;2023-05-10T02:07:07;2.90;;;1.30;;
67181;SDS011;54114;53.524;49.396;2023-05-10T02:09:35;6.35;;;1.33;;
67181;SDS011;54114;53.524;49.396;2023-05-10T02:12:04;2.22;;;1.27;;
67181;SDS011;54114;53.524;49.396;2023-05-10T02:14:34;3.60;;;0.85;;
67181;SDS011;54114;53.524;49.396;2023-05-10T02:17:03;1.92;;;0.75;;
67181;SDS011;54114;53.524;49.396;2023-05-10T02:19:32;9.55;;;1.30;;
67181;SDS011;54114;53.524;49.396;2023-05-10T02:21:59;6.50;;;0.85;;
67181;SDS011;54114;53.524;49.396;2023-05-10T02:24:27;3.00;;;0.80;;
67181;SDS011;54114;53.524;49.396;2023-05-10T02:26:55;4.20;;;1.02;;
67181;SDS011;54114;53.524;49.396;2023-05-10T02:29:23;2.08;;;0.90;;
67181;SDS011;54114;53.524;49.396;2023-05-10T02:31:52;3.97;;;1.23;;
67181;SDS011;54114;53.524;49.396;2023-05-10T02:34:21;2.65;;;1.02;;
67181;SDS011;54114;53.524;49.396;2023-05-10T02:36:49;1.90;;;0.90;;
67181;SDS011;54114;53.524;49.396;2023-05-10T02:39:18;4.43;;;1.17;;
67181;SDS011;54114;53.524;49.396;2023-05-10T02:41:46;3.58;;;1.00;;
67181;SDS011;54114;53.524;49.396;2023-05-10T02:44:17;1.83;;;0.73;;
67181;SDS011;54114;53.524;49.396;2023-05-10T02:46:45;3.25;;;0.95;;
67181;SDS011;54114;53.524;49.396;2023-05-10T02:49:13;8.07;;;1.25;;
67181;SDS011;54114;53.524;49.396;2023-05-10T02:51:42;2.65;;;0.93;;
67181;SDS011;54114;53.524;49.396;2023-05-10T02:54:20;4.75;;;1.10;;
67181;SDS011;54114;53.524;49.396;2023-05-10T02:56:55;5.65;;;1.00;;
67181;SDS011;54114;53.524;49.396;2023-05-10T02:59:26;3.17;;;1.12;;
67181;SDS011;54114;53.524;49.396;2023-05-10T03:01:53;1.62;;;0.80;;
67181;SDS011;54114;53.524;49.396;2023-05-10T03:04:20;8.93;;;0.95;;
67181;SDS011;54114;53.524;49.396;2023-05-10T03:06:46;1.23;;;0.70;;
67181;SDS011;54114;53.524;49.396;2023-05-10T03:09:13;1.60;;;0.70;;
67181;SDS011;54114;53.524;49.396;2023-05-10T03:11:55;4.32;;;0.70;;
67181;SDS011;54114;53.524;49.396;2023-05-10T03:14:49;2.35;;;0.77;;
67181;SDS011;54114;53.524;49.396;2023-05-10T03:17:35;10.07;;;1.25;;
67181;SDS011;54114;53.524;49.396;2023-05-10T03:20:16;1.75;;;0.88;;
67181;SDS011;54114;53.524;49.396;2023-05-10T03:22:53;6.68;;;0.75;;
67181;SDS011;54114;53.524;49.396;2023-05-10T03:25:28;3.12;;;0.88;;
67181;SDS011;54114;53.524;49.396;2023-05-10T03:27:57;3.42;;;1.62;;
67181;SDS011;54114;53.524;49.396;2023-05-10T03:30:27;3.78;;;0.80;;
67181;SDS011;54114;53.524;49.396;2023-05-10T03:32:55;1.40;;;0.95;;
67181;SDS011;54114;53.524;49.396;2023-05-10T03:35:22;4.72;;;0.95;;
67181;SDS011;54114;53.524;49.396;2023-05-10T03:37:50;3.78;;;0.98;;
67181;SDS011;54114;53.524;49.396;2023-05-10T03:40:16;2.03;;;0.82;;
67181;SDS011;54114;53.524;49.396;2023-05-10T03:42:43;6.87;;;1.10;;
67181;SDS011;54114;53.524;49.396;2023-05-10T03:45:10;6.47;;;1.23;;
67181;SDS011;54114;53.524;49.396;2023-05-10T03:47:36;7.90;;;1.00;;
67181;SDS011;54114;53.524;49.396;2023-05-10T03:50:03;3.37;;;1.40;;
67181;SDS011;54114;53.524;49.396;2023-05-10T03:52:31;2.92;;;1.10;;
67181;SDS011;54114;53.524;49.396;2023-05-10T03:54:57;4.43;;;1.17;;
67181;SDS011;54114;53.524;49.396;2023-05-10T03:57:24;6.10;;;1.73;;
67181;SDS011;54114;53.524;49.396;2023-05-10T03:59:50;7.40;;;1.17;;
67181;SDS011;54114;53.524;49.396;2023-05-10T04:02:17;5.03;;;1.40;;
67181;SDS011;54114;53.524;49.396;2023-05-10T04:04:44;4.28;;;1.17;;
67181;SDS011;54114;53.524;49.396;2023-05-10T04:07:10;5.25;;;1.00;;
67181;SDS011;54114;53.524;49.396;2023-05-10T04:09:37;5.22;;;1.00;;
67181;SDS011;54114;53.524;49.396;2023-05-10T04:12:04;3.67;;;1.20;;
67181;SDS011;54114;53.524;49.396;2023-05-10T04:14:31;7.07;;;1.60;;
67181;SDS011;54114;53.524;49.396;2023-05-10T04:16:58;1.87;;;0.90;;
67181;SDS011;54114;53.524;49.396;2023-05-10T04:19:28;2.33;;;1.05;;
67181;SDS011;54114;53.524;49.396;2023-05-10T04:21:58;6.18;;;1.40;;
67181;SDS011;54114;53.524;49.396;2023-05-10T04:24:25;2.50;;;1.00;;
67181;SDS011;54114;53.524;49.396;2023-05-10T04:26:52;2.60;;;0.80;;
67181;SDS011;54114;53.524;49.396;2023-05-10T04:29:20;3.53;;;1.17;;
67181;SDS011;54114;53.524;49.396;2023-05-10T04:31:47;3.62;;;1.23;;
67181;SDS011;54114;53.524;49.396;2023-05-10T04:34:14;3.40;;;0.93;;
67181;SDS011;54114;53.524;49.396;2023-05-10T04:36:40;5.32;;;1.17;;
67181;SDS011;54114;53.524;49.396;2023-05-10T04:39:07;7.80;;;0.70;;
67181;SDS011;54114;53.524;49.396;2023-05-10T04:41:37;5.57;;;1.17;;
67181;SDS011;54114;53.524;49.396;2023-05-10T04:44:49;3.37;;;0.60;;
67181;SDS011;54114;53.524;49.396;2023-05-10T04:47:17;7.78;;;0.98;;
67181;SDS011;54114;53.524;49.396;2023-05-10T04:49:43;2.95;;;0.88;;
67181;SDS011;54114;53.524;49.396;2023-05-10T04:52:10;6.57;;;1.17;;
67181;SDS011;54114;53.524;49.396;2023-05-10T04:54:37;3.05;;;1.10;;
67181;SDS011;54114;53.524;49.396;2023-05-10T04:57:03;2.58;;;0.88;;
67181;SDS011;54114;53.524;49.396;2023-05-10T04:59:30;5.43;;;0.85;;
67181;SDS011;54114;53.524;49.396;2023-05-10T05:01:57;2.47;;;1.05;;
67181;SDS011;54114;53.524;49.396;2023-05-10T05:04:23;5.93;;;1.08;;
67181;SDS011;54114;53.524;49.396;2023-05-10T05:06:50;4.78;;;0.85;;
67181;SDS011;54114;53.524;49.396;2023-05-10T05:09:17;1.30;;;0.75;;
67181;SDS011;54114;53.524;49.396;2023-05-10T05:11:43;3.70;;;0.80;;
67181;SDS011;54114;53.524;49.396;2023-05-10T05:14:10;2.40;;;0.70;;
67181;SDS011;54114;53.524;49.396;2023-05-10T05:16:37;6.47;;;0.77;;
67181;SDS011;54114;53.524;49.396;2023-05-10T05:19:03;1.55;;;0.90;;
67181;SDS011;54114;53.524;49.396;2023-05-10T05:21:30;1.60;;;0.60;;
67181;SDS011;54114;53.524;49.396;2023-05-10T05:23:57;1.87;;;0.50;;
67181;SDS011;54114;53.524;49.396;2023-05-10T05:26:25;2.65;;;0.77;;
67181;SDS011;54114;53.524;49.396;2023-05-10T05:28:52;4.85;;;0.70;;
67181;SDS011;54114;53.524;49.396;2023-05-10T05:31:20;2.47;;;0.70;;
67181;SDS011;54114;53.524;49.396;2023-05-10T05:33:46;2.78;;;0.90;;
67181;SDS011;54114;53.524;49.396;2023-05-10T05:36:13;4.93;;;1.30;;
67181;SDS011;54114;53.524;49.396;2023-05-10T05:38:40;3.25;;;1.12;;
67181;SDS011;54114;53.524;49.396;2023-05-10T05:41:06;3.87;;;0.70;;
67181;SDS011;54114;53.524;49.396;2023-05-10T05:43:33;2.12;;;0.70;;
67181;SDS011;54114;53.524;49.396;2023-05-10T05:46:00;2.47;;;0.70;;
67181;SDS011;54114;53.524;49.396;2023-05-10T05:48:26;8.45;;;0.90;;
67181;SDS011;54114;53.524;49.396;2023-05-10T05:50:55;3.40;;;0.55;;
67181;SDS011;54114;53.524;49.396;2023-05-10T05:53:23;5.97;;;0.95;;
67181;SDS011;54114;53.524;49.396;2023-05-10T05:55:56;3.97;;;1.00;;
67181;SDS011;54114;53.524;49.396;2023-05-10T05:58:24;2.22;;;0.60;;
67181;SDS011;54114;53.524;49.396;2023-05-10T06:00:52;2.50;;;0.88;;
67181;SDS011;54114;53.524;49.396;2023-05-10T06:03:18;2.15;;;0.77;;
67181;SDS011;54114;53.524;49.396;2023-05-10T06:05:46;5.35;;;0.95;;
67181;SDS011;54114;53.524;49.396;2023-05-10T06:08:13;5.95;;;0.90;;
67181;SDS011;54114;53.524;49.396;2023-05-10T06:10:40;4.97;;;0.98;;
67181;SDS011;54114;53.524;49.396;2023-05-10T06:13:07;3.05;;;0.57;;
67181;SDS011;54114;53.524;49.396;2023-05-10T06:15:33;2.60;;;0.50;;
67181;SDS011;54114;53.524;49.396;2023-05-10T06:18:00;1.27;;;0.57;;
67181;SDS011;54114;53.524;49.396;2023-05-10T06:20:27;3.22;;;0.50;;
67181;SDS011;54114;53.524;49.396;2023-05-10T06:22:54;1.90;;;0.50;;
67181;SDS011;54114;53.524;49.396;2023-05-10T06:25:20;4.72;;;0.70;;
67181;SDS011;54114;53.524;49.396;2023-05-10T06:27:47;2.35;;;0.70;;
67181;SDS011;54114;53.524;49.396;2023-05-10T06:30:14;7.18;;;0.52;;
67181;SDS011;54114;53.524;49.396;2023-05-10T06:32:41;1.95;;;0.55;;
67181;SDS011;54114;53.524;49.396;2023-05-10T06:35:09;3.22;;;0.60;;
67181;SDS011;54114;53.524;49.396;2023-05-10T06:37:36;2.53;;;0.57;;
67181;SDS011;54114;53.524;49.396;2023-05-10T06:40:02;1.48;;;0.50;;
67181;SDS011;54114;53.524;49.396;2023-05-10T06:42:30;3.15;;;0.57;;
67181;SDS011;54114;53.524;49.396;2023-05-10T06:44:57;2.37;;;0.75;;
67181;SDS011;54114;53.524;49.396;2023-05-10T06:47:24;3.65;;;0.60;;
67181;SDS011;54114;53.524;49.396;2023-05-10T06:49:51;3.33;;;0.82;;
67181;SDS011;54114;53.524;49.396;2023-05-10T06:52:17;1.73;;;0.60;;
67181;SDS011;54114;53.524;49.396;2023-05-10T06:54:44;2.67;;;0.60;;
67181;SDS011;54114;53.524;49.396;2023-05-10T06:57:11;1.80;;;0.60;;
67181;SDS011;54114;53.524;49.396;2023-05-10T06:59:37;5.72;;;0.60;;
67181;SDS011;54114;53.524;49.396;2023-05-10T07:02:04;2.62;;;0.55;;
67181;SDS011;54114;53.524;49.396;2023-05-10T07:04:31;1.05;;;0.50;;
67181;SDS011;54114;53.524;49.396;2023-05-10T07:06:58;5.37;;;0.60;;
67181;SDS011;54114;53.524;49.396;2023-05-10T07:09:25;4.05;;;0.70;;
67181;SDS011;54114;53.524;49.396;2023-05-10T07:11:51;1.70;;;0.47;;
67181;SDS011;54114;53.524;49.396;2023-05-10T07:14:18;1.90;;;0.70;;
67181;SDS011;54114;53.524;49.396;2023-05-10T07:16:45;5.20;;;0.70;;
67181;SDS011;54114;53.524;49.396;2023-05-10T07:19:12;3.10;;;0.60;;
67181;SDS011;54114;53.524;49.396;2023-05-10T07:21:39;1.02;;;0.62;;
67181;SDS011;54114;53.524;49.396;2023-05-10T07:24:07;1.17;;;0.50;;
67181;SDS011;54114;53.524;49.396;2023-05-10T07:26:34;2.87;;;0.70;;
67181;SDS011;54114;53.524;49.396;2023-05-10T07:29:01;2.58;;;0.68;;
67181;SDS011;54114;53.524;49.396;2023-05-10T07:31:28;10.02;;;0.80;;
67181;SDS011;54114;53.524;49.396;2023-05-10T07:33:55;10.25;;;0.73;;
67181;SDS011;54114;53.524;49.396;2023-05-10T07:36:22;3.00;;;0.80;;
67181;SDS011;54114;53.524;49.396;2023-05-10T07:38:48;4.78;;;1.00;;
67181;SDS011;54114;53.524;49.396;2023-05-10T07:41:15;1.00;;;0.68;;
67181;SDS011;54114;53.524;49.396;2023-05-10T07:43:42;1.02;;;0.60;;
67181;SDS011;54114;53.524;49.396;2023-05-10T07:46:09;0.80;;;0.50;;
67181;SDS011;54114;53.524;49.396;2023-05-10T07:48:36;5.12;;;0.80;;
67181;SDS011;54114;53.524;49.396;2023-05-10T07:51:03;4.12;;;1.20;;
67181;SDS011;54114;53.524;49.396;2023-05-10T07:53:31;2.87;;;1.15;;
67181;SDS011;54114;53.524;49.396;2023-05-10T07:55:59;1.90;;;0.60;;
67181;SDS011;54114;53.524;49.396;2023-05-10T07:58:46;6.55;;;0.70;;
67181;SDS011;54114;53.524;49.396;2023-05-10T08:01:12;3.05;;;0.60;;
67181;SDS011;54114;53.524;49.396;2023-05-10T08:03:39;7.57;;;0.70;;
67181;SDS011;54114;53.524;49.396;2023-05-10T08:06:06;0.60;;;0.52;;
67181;SDS011;54114;53.524;49.396;2023-05-10T08:08:33;1.50;;;0.60;;
67181;SDS011;54114;53.524;49.396;2023-05-10T08:10:59;1.55;;;0.70;;
67181;SDS011;54114;53.524;49.396;2023-05-10T08:13:26;1.35;;;0.80;;
67181;SDS011;54114;53.524;49.396;2023-05-10T08:15:53;4.22;;;0.60;;
67181;SDS011;54114;53.524;49.396;2023-05-10T08:18:19;1.55;;;0.70;;
67181;SDS011;54114;53.524;49.396;2023-05-10T08:20:46;2.00;;;0.60;;
67181;SDS011;54114;53.524;49.396;2023-05-10T08:23:13;3.22;;;1.12;;
67181;SDS011;54114;53.524;49.396;2023-05-10T08:25:40;1.77;;;0.90;;
67181;SDS011;54114;53.524;49.396;2023-05-10T08:28:06;1.83;;;1.02;;
67181;SDS011;54114;53.524;49.396;2023-05-10T08:30:33;2.47;;;1.05;;
67181;SDS011;54114;53.524;49.396;2023-05-10T08:33:00;1.70;;;1.02;;
67181;SDS011;54114;53.524;49.396;2023-05-10T08:35:26;1.83;;;0.80;;
67181;SDS011;54114;53.524;49.396;2023-05-10T08:37:53;1.87;;;0.80;;
67181;SDS011;54114;53.524;49.396;2023-05-10T08:40:20;3.17;;;1.20;;
67181;SDS011;54114;53.524;49.396;2023-05-10T08:42:49;2.53;;;0.95;;
67181;SDS011;54114;53.524;49.396;2023-05-10T08:45:24;1.62;;;0.80;;
67181;SDS011;54114;53.524;49.396;2023-05-10T08:47:51;2.78;;;1.05;;
67181;SDS011;54114;53.524;49.396;2023-05-10T08:50:19;2.00;;;0.80;;
67181;SDS011;54114;53.524;49.396;2023-05-10T08:52:47;3.62;;;1.02;;
67181;SDS011;54114;53.524;49.396;2023-05-10T08:55:16;2.85;;;1.70;;
67181;SDS011;54114;53.524;49.396;2023-05-10T08:57:44;3.58;;;2.22;;
67181;SDS011;54114;53.524;49.396;2023-05-10T09:00:11;4.37;;;2.17;;
67181;SDS011;54114;53.524;49.396;2023-05-10T09:02:39;3.55;;;1.95;;
67181;SDS011;54114;53.524;49.396;2023-05-10T09:05:07;4.65;;;2.28;;
67181;SDS011;54114;53.524;49.396;2023-05-10T09:07:35;3.97;;;2.05;;
67181;SDS011;54114;53.524;49.396;2023-05-10T09:10:03;1.87;;;1.27;;
67181;SDS011;54114;53.524;49.396;2023-05-10T09:12:31;5.72;;;1.55;;
67181;SDS011;54114;53.524;49.396;2023-05-10T09:14:58;2.25;;;1.20;;
67181;SDS011;54114;53.524;49.396;2023-05-10T09:17:26;5.30;;;3.10;;
67181;SDS011;54114;53.524;49.396;2023-05-10T09:19:58;4.50;;;3.03;;
67181;SDS011;54114;53.524;49.396;2023-05-10T09:22:26;6.05;;;2.50;;
67181;SDS011;54114;53.524;49.396;2023-05-10T09:27:44;5.00;;;3.22;;
67181;SDS011;54114;53.524;49.396;2023-05-10T09:30:33;4.20;;;3.40;;
67181;SDS011;54114;53.524;49.396;2023-05-10T09:32:59;5.62;;;2.50;;
67181;SDS011;54114;53.524;49.396;2023-05-10T09:35:28;6.10;;;2.05;;
67181;SDS011;54114;53.524;49.396;2023-05-10T09:37:57;5.12;;;2.30;;
67181;SDS011;54114;53.524;49.396;2023-05-10T09:40:31;3.37;;;2.05;;
67181;SDS011;54114;53.524;49.396;2023-05-10T09:43:02;7.80;;;2.25;;
67181;SDS011;54114;53.524;49.396;2023-05-10T09:45:32;2.83;;;1.80;;
67181;SDS011;54114;53.524;49.396;2023-05-10T09:48:01;3.17;;;2.12;;
67181;SDS011;54114;53.524;49.396;2023-05-10T09:50:29;3.72;;;2.75;;
67181;SDS011;54114;53.524;49.396;2023-05-10T09:52:56;3.78;;;2.58;;
67181;SDS011;54114;53.524;49.396;2023-05-10T09:55:26;4.80;;;2.75;;
67181;SDS011;54114;53.524;49.396;2023-05-10T09:58:06;9.82;;;3.00;;
67181;SDS011;54114;53.524;49.396;2023-05-10T10:00:37;5.47;;;3.05;;
67181;SDS011;54114;53.524;49.396;2023-05-10T10:03:06;6.57;;;2.33;;
67181;SDS011;54114;53.524;49.396;2023-05-10T10:05:43;5.10;;;2.65;;
67181;SDS011;54114;53.524;49.396;2023-05-10T10:08:10;4.20;;;2.30;;
67181;SDS011;54114;53.524;49.396;2023-05-10T10:10:38;5.53;;;2.45;;
67181;SDS011;54114;53.524;49.396;2023-05-10T10:13:05;4.45;;;2.83;;
67181;SDS011;54114;53.524;49.396;2023-05-10T10:15:33;11.48;;;3.20;;
67181;SDS011;54114;53.524;49.396;2023-05-10T10:18:00;6.53;;;3.15;;
67181;SDS011;54114;53.524;49.396;2023-05-10T10:20:29;4.45;;;2.60;;
67181;SDS011;54114;53.524;49.396;2023-05-10T10:22:56;8.20;;;3.83;;
67181;SDS011;54114;53.524;49.396;2023-05-10T10:25:25;11.55;;;2.90;;
67181;SDS011;54114;53.524;49.396;2023-05-10T10:33:26;6.50;;;3.55;;
67181;SDS011;54114;53.524;49.396;2023-05-10T10:36:14;5.45;;;3.10;;
67181;SDS011;54114;53.524;49.396;2023-05-10T10:41:28;12.85;;;4.50;;
67181;SDS011;54114;53.524;49.396;2023-05-10T10:44:40;7.65;;;3.40;;
67181;SDS011;54114;53.524;49.396;2023-05-10T10:49:49;5.45;;;2.85;;
67181;SDS011;54114;53.524;49.396;2023-05-10T10:52:30;8.63;;;3.72;;
67181;SDS011;54114;53.524;49.396;2023-05-10T11:03:05;6.78;;;3.22;;
67181;SDS011;54114;53.524;49.396;2023-05-10T11:05:44;10.13;;;3.80;;
67181;SDS011;54114;53.524;49.396;2023-05-10T11:08:29;10.05;;;3.92;;
67181;SDS011;54114;53.524;49.396;2023-05-10T11:11:08;7.28;;;3.50;;
67181;SDS011;54114;53.524;49.396;2023-05-10T11:13:37;5.55;;;3.00;;
67181;SDS011;54114;53.524;49.396;2023-05-10T11:16:10;4.45;;;3.17;;
67181;SDS011;54114;53.524;49.396;2023-05-10T11:19:01;4.05;;;3.03;;
67181;SDS011;54114;53.524;49.396;2023-05-10T11:21:48;8.95;;;3.70;;
67181;SDS011;54114;53.524;49.396;2023-05-10T11:24:36;4.40;;;3.58;;
67181;SDS011;54114;53.524;49.396;2023-05-10T11:27:03;4.90;;;3.20;;
67181;SDS011;54114;53.524;49.396;2023-05-10T11:29:30;3.35;;;2.87;;
67181;SDS011;54114;53.524;49.396;2023-05-10T11:31:58;3.87;;;3.00;;
67181;SDS011;54114;53.524;49.396;2023-05-10T11:34:29;8.43;;;3.28;;
67181;SDS011;54114;53.524;49.396;2023-05-10T11:37:00;6.68;;;3.50;;
67181;SDS011;54114;53.524;49.396;2023-05-10T11:39:27;4.53;;;2.90;;
67181;SDS011;54114;53.524;49.396;2023-05-10T11:41:56;3.92;;;2.58;;
67181;SDS011;54114;53.524;49.396;2023-05-10T11:44:30;7.55;;;3.08;;
67181;SDS011;54114;53.524;49.396;2023-05-10T11:47:00;8.30;;;3.17;;
67181;SDS011;54114;53.524;49.396;2023-05-10T11:49:28;4.97;;;3.40;;
67181;SDS011;54114;53.524;49.396;2023-05-10T11:52:07;4.72;;;2.60;;
67181;SDS011;54114;53.524;49.396;2023-05-10T11:54:36;5.87;;;2.50;;
67181;SDS011;54114;53.524;49.396;2023-05-10T11:57:03;4.12;;;2.72;;
67181;SDS011;54114;53.524;49.396;2023-05-10T11:59:30;4.03;;;2.85;;
67181;SDS011;54114;53.524;49.396;2023-05-10T12:01:57;4.20;;;2.50;;
67181;SDS011;54114;53.524;49.396;2023-05-10T12:04:23;4.25;;;2.60;;
67181;SDS011;54114;53.524;49.396;2023-05-10T12:06:54;6.03;;;2.83;;
67181;SDS011;54114;53.524;49.396;2023-05-10T12:09:21;9.30;;;2.90;;
67181;SDS011;54114;53.524;49.396;2023-05-10T12:11:48;6.93;;;3.10;;
67181;SDS011;54114;53.524;49.396;2023-05-10T12:14:14;4.80;;;2.50;;
67181;SDS011;54114;53.524;49.396;2023-05-10T12:16:42;3.42;;;2.70;;
67181;SDS011;54114;53.524;49.396;2023-05-10T12:19:09;4.25;;;2.40;;
67181;SDS011;54114;53.524;49.396;2023-05-10T12:21:36;7.18;;;2.60;;
67181;SDS011;54114;53.524;49.396;2023-05-10T12:24:04;4.85;;;2.67;;
67181;SDS011;54114;53.524;49.396;2023-05-10T12:26:30;9.88;;;2.45;;
67181;SDS011;54114;53.524;49.396;2023-05-10T12:29:17;5.20;;;2.75;;
67181;SDS011;54114;53.524;49.396;2023-05-10T12:31:55;6.00;;;2.83;;
67181;SDS011;54114;53.524;49.396;2023-05-10T12:34:33;10.07;;;2.70;;
67181;SDS011;54114;53.524;49.396;2023-05-10T12:37:04;3.80;;;2.45;;
67181;SDS011;54114;53.524;49.396;2023-05-10T12:39:40;10.73;;;3.00;;
67181;SDS011;54114;53.524;49.396;2023-05-10T12:42:09;2.90;;;2.37;;
67181;SDS011;54114;53.524;49.396;2023-05-10T12:44:37;6.78;;;3.03;;
67181;SDS011;54114;53.524;49.396;2023-05-10T12:47:04;5.72;;;2.78;;
67181;SDS011;54114;53.524;49.396;2023-05-10T12:49:31;7.53;;;2.58;;
67181;SDS011;54114;53.524;49.396;2023-05-10T12:51:58;4.85;;;2.87;;
67181;SDS011;54114;53.524;49.396;2023-05-10T12:54:24;7.70;;;2.90;;
67181;SDS011;54114;53.524;49.396;2023-05-10T12:56:51;8.70;;;2.50;;
67181;SDS011;54114;53.524;49.396;2023-05-10T12:59:18;6.82;;;2.85;;
67181;SDS011;54114;53.524;49.396;2023-05-10T13:01:44;4.80;;;2.40;;
67181;SDS011;54114;53.524;49.396;2023-05-10T13:04:11;5.30;;;2.75;;
67181;SDS011;54114;53.524;49.396;2023-05-10T13:06:37;3.22;;;2.45;;
67181;SDS011;54114;53.524;49.396;2023-05-10T13:09:04;4.80;;;2.50;;
67181;SDS011;54114;53.524;49.396;2023-05-10T13:11:31;9.20;;;2.80;;
67181;SDS011;54114;53.524;49.396;2023-05-10T13:13:58;9.50;;;2.95;;
67181;SDS011;54114;53.524;49.396;2023-05-10T13:16:25;4.45;;;2.87;;
67181;SDS011;54114;53.524;49.396;2023-05-10T13:18:52;7.55;;;2.70;;
67181;SDS011;54114;53.524;49.396;2023-05-10T13:21:18;9.63;;;3.50;;
67181;SDS011;54114;53.524;49.396;2023-05-10T13:23:45;5.60;;;2.72;;
67181;SDS011;54114;53.524;49.396;2023-05-10T13:26:12;5.28;;;2.55;;
67181;SDS011;54114;53.524;49.396;2023-05-10T13:28:38;5.10;;;2.55;;
67181;SDS011;54114;53.524;49.396;2023-05-10T13:31:05;4.70;;;3.10;;
67181;SDS011;54114;53.524;49.396;2023-05-10T13:33:33;7.43;;;2.83;;
67181;SDS011;54114;53.524;49.396;2023-05-10T13:35:59;6.97;;;3.30;;
67181;SDS011;54114;53.524;49.396;2023-05-10T13:38:26;12.25;;;3.12;;
67181;SDS011;54114;53.524;49.396;2023-05-10T13:40:53;6.80;;;2.12;;
67181;SDS011;54114;53.524;49.396;2023-05-10T13:43:19;5.10;;;1.30;;
67181;SDS011;54114;53.524;49.396;2023-05-10T13:45:46;1.67;;;0.98;;
67181;SDS011;54114;53.524;49.396;2023-05-10T13:48:13;1.23;;;0.90;;
67181;SDS011;54114;53.524;49.396;2023-05-10T13:50:40;4.47;;;1.55;;
67181;SDS011;54114;53.524;49.396;2023-05-10T13:53:07;2.53;;;1.12;;
67181;SDS011;54114;53.524;49.396;2023-05-10T13:55:33;3.03;;;1.15;;
67181;SDS011;54114;53.524;49.396;2023-05-10T13:58:01;2.03;;;1.20;;
67181;SDS011;54114;53.524;49.396;2023-05-10T14:00:27;2.17;;;1.30;;
67181;SDS011;54114;53.524;49.396;2023-05-10T14:02:54;2.50;;;1.10;;
67181;SDS011;54114;53.524;49.396;2023-05-10T14:05:21;2.87;;;0.80;;
67181;SDS011;54114;53.524;49.396;2023-05-10T14:07:49;5.37;;;1.70;;
67181;SDS011;54114;53.524;49.396;2023-05-10T14:10:16;1.75;;;0.88;;
67181;SDS011;54114;53.524;49.396;2023-05-10T14:12:43;1.40;;;0.80;;
67181;SDS011;54114;53.524;49.396;2023-05-10T14:15:10;4.10;;;0.90;;
67181;SDS011;54114;53.524;49.396;2023-05-10T14:17:37;4.35;;;0.80;;
67181;SDS011;54114;53.524;49.396;2023-05-10T14:20:03;4.45;;;0.70;;
67181;SDS011;54114;53.524;49.396;2023-05-10T14:22:31;2.90;;;0.62;;
67181;SDS011;54114;53.524;49.396;2023-05-10T14:24:58;4.50;;;0.85;;
67181;SDS011;54114;53.524;49.396;2023-05-10T14:27:24;4.03;;;1.10;;
67181;SDS011;54114;53.524;49.396;2023-05-10T14:29:51;1.87;;;0.68;;
67181;SDS011;54114;53.524;49.396;2023-05-10T14:32:18;2.08;;;0.70;;
67181;SDS011;54114;53.524;49.396;2023-05-10T14:34:45;6.15;;;0.95;;
67181;SDS011;54114;53.524;49.396;2023-05-10T14:37:12;2.45;;;0.80;;
67181;SDS011;54114;53.524;49.396;2023-05-10T14:39:40;2.40;;;0.80;;
67181;SDS011;54114;53.524;49.396;2023-05-10T14:42:08;3.25;;;0.82;;
67181;SDS011;54114;53.524;49.396;2023-05-10T14:44:34;2.35;;;0.88;;
67181;SDS011;54114;53.524;49.396;2023-05-10T14:47:01;1.10;;;0.70;;
67181;SDS011;54114;53.524;49.396;2023-05-10T14:49:28;2.62;;;0.90;;
67181;SDS011;54114;53.524;49.396;2023-05-10T14:51:54;1.65;;;0.68;;
67181;SDS011;54114;53.524;49.396;2023-05-10T14:54:21;2.12;;;0.70;;
67181;SDS011;54114;53.524;49.396;2023-05-10T14:56:48;3.72;;;0.73;;
67181;SDS011;54114;53.524;49.396;2023-05-10T14:59:15;1.23;;;0.80;;
67181;SDS011;54114;53.524;49.396;2023-05-10T15:01:42;2.35;;;1.20;;
67181;SDS011;54114;53.524;49.396;2023-05-10T15:04:08;2.25;;;0.90;;
67181;SDS011;54114;53.524;49.396;2023-05-10T15:06:35;1.83;;;1.10;;
67181;SDS011;54114;53.524;49.396;2023-05-10T15:09:02;3.22;;;0.85;;
67181;SDS011;54114;53.524;49.396;2023-05-10T15:11:29;2.40;;;0.90;;
67181;SDS011;54114;53.524;49.396;2023-05-10T15:13:55;2.72;;;0.77;;
67181;SDS011;54114;53.524;49.396;2023-05-10T15:16:22;4.07;;;1.30;;
67181;SDS011;54114;53.524;49.396;2023-05-10T15:18:49;2.58;;;0.98;;
67181;SDS011;54114;53.524;49.396;2023-05-10T15:21:16;2.28;;;0.80;;
67181;SDS011;54114;53.524;49.396;2023-05-10T15:23:42;2.75;;;1.08;;